createdAt,value
2022-08-04T00:00:09.012Z,13.60
2022-08-04T00:03:03.021Z,13.60
2022-08-04T00:05:49.038Z,13.60
2022-08-04T00:08:30.297Z,13.50
2022-08-04T00:11:00.519Z,13.50
2022-08-04T00:13:30.880Z,13.50
2022-08-04T00:16:05.829Z,13.50
2022-08-04T00:18:41.152Z,13.40
2022-08-04T00:21:14.681Z,13.30
2022-08-04T00:24:11.382Z,13.40
2022-08-04T00:26:33.405Z,13.40
2022-08-04T00:29:01.236Z,13.50
2022-08-04T00:31:33.346Z,13.50
2022-08-04T00:34:16.144Z,13.50
2022-08-04T00:36:46.284Z,13.50
2022-08-04T00:39:17.006Z,13.50
2022-08-04T00:42:14.103Z,13.40
2022-08-04T00:44:56.255Z,13.40
2022-08-04T00:48:02.300Z,13.40
2022-08-04T00:50:44.262Z,13.30
2022-08-04T00:53:36.902Z,13.30
2022-08-04T00:56:12.938Z,13.30
2022-08-04T00:58:50.312Z,13.30
2022-08-04T01:01:40.073Z,13.30
2022-08-04T01:04:22.217Z,13.30
2022-08-04T01:07:11.271Z,13.30
2022-08-04T01:09:47.584Z,13.30
2022-08-04T01:12:36.121Z,13.20
2022-08-04T01:15:14.592Z,13.20
2022-08-04T01:17:54.126Z,13.10
2022-08-04T01:20:25.194Z,13.20
2022-08-04T01:22:55.090Z,13.10
2022-08-04T01:25:51.457Z,13.10
2022-08-04T01:28:31.360Z,13.10
2022-08-04T01:31:03.015Z,13.00
2022-08-04T01:34:03.929Z,13.00
2022-08-04T01:36:24.893Z,12.90
2022-08-04T01:38:54.824Z,13.00
2022-08-04T01:41:32.133Z,13.00
2022-08-04T01:44:02.003Z,13.00
2022-08-04T01:46:33.914Z,13.00
2022-08-04T01:49:02.839Z,13.00
2022-08-04T01:51:36.119Z,13.00
2022-08-04T01:54:03.136Z,13.00
2022-08-04T01:56:31.517Z,12.90
2022-08-04T01:58:59.446Z,13.00
2022-08-04T02:01:26.495Z,13.00
2022-08-04T02:04:20.593Z,13.00
2022-08-04T02:06:56.064Z,12.90
2022-08-04T02:09:54.331Z,12.90
2022-08-04T02:13:11.997Z,12.90
2022-08-04T02:15:58.232Z,12.90
2022-08-04T02:18:31.299Z,12.90
2022-08-04T02:21:01.666Z,12.80
2022-08-04T02:23:39.562Z,12.80
2022-08-04T02:26:22.227Z,12.80
2022-08-04T02:29:01.433Z,12.80
2022-08-04T02:31:37.494Z,12.90
2022-08-04T02:34:22.464Z,12.80
2022-08-04T02:36:52.389Z,12.70
2022-08-04T02:39:23.460Z,12.70
2022-08-04T02:41:52.985Z,12.70
2022-08-04T02:44:23.793Z,12.70
2022-08-04T02:46:53.702Z,12.70
2022-08-04T02:49:22.651Z,12.80
2022-08-04T02:51:55.168Z,12.70
2022-08-04T02:54:45.687Z,12.80
2022-08-04T02:57:14.013Z,12.80
2022-08-04T03:00:09.994Z,12.80
2022-08-04T03:02:57.151Z,12.80
2022-08-04T03:06:00.673Z,12.80
2022-08-04T03:09:02.136Z,12.70
2022-08-04T03:12:04.505Z,12.70
2022-08-04T03:15:09.080Z,12.70
2022-08-04T03:18:00.589Z,12.80
2022-08-04T03:20:42.915Z,12.80
2022-08-04T03:23:15.339Z,12.80
2022-08-04T03:25:56.820Z,12.80
2022-08-04T03:29:00.657Z,12.70
2022-08-04T03:31:33.748Z,12.70
2022-08-04T03:34:27.279Z,12.70
2022-08-04T03:37:18.262Z,12.70
2022-08-04T03:40:10.776Z,12.70
2022-08-04T03:42:59.512Z,12.70
2022-08-04T03:45:53.956Z,12.70
2022-08-04T03:48:45.217Z,12.70
2022-08-04T03:52:16.081Z,12.70
2022-08-04T03:54:48.853Z,12.70
2022-08-04T03:57:30.822Z,12.70
2022-08-04T04:00:08.904Z,12.60
2022-08-04T04:03:00.899Z,12.60
2022-08-04T04:05:58.829Z,12.60
2022-08-04T04:08:27.098Z,12.60
2022-08-04T04:10:57.167Z,12.70
2022-08-04T04:13:24.138Z,12.60
2022-08-04T04:15:57.372Z,12.60
2022-08-04T04:18:49.431Z,12.50
2022-08-04T04:21:29.566Z,12.50
2022-08-04T04:24:33.973Z,12.60
2022-08-04T04:27:06.902Z,12.60
2022-08-04T04:29:52.177Z,12.60
2022-08-04T04:32:28.023Z,12.60
2022-08-04T04:35:16.367Z,12.50
2022-08-04T04:38:18.904Z,12.50
2022-08-04T04:40:57.869Z,12.50
2022-08-04T04:43:52.159Z,12.50
2022-08-04T04:46:31.077Z,12.60
2022-08-04T04:49:12.868Z,12.60
2022-08-04T04:51:50.309Z,12.60
2022-08-04T04:54:41.446Z,12.60
2022-08-04T04:57:17.909Z,12.60
2022-08-04T04:59:59.108Z,12.60
2022-08-04T05:02:56.506Z,12.60
2022-08-04T05:05:31.042Z,12.60
2022-08-04T05:08:42.983Z,12.60
2022-08-04T05:11:40.220Z,12.60
2022-08-04T05:14:36.356Z,12.60
2022-08-04T05:17:00.973Z,12.70
2022-08-04T05:19:30.723Z,12.70
2022-08-04T05:21:58.154Z,12.70
2022-08-04T05:24:27.756Z,12.80
2022-08-04T05:27:01.008Z,12.80
2022-08-04T05:29:37.420Z,12.80
2022-08-04T05:32:14.966Z,12.70
2022-08-04T05:34:45.711Z,12.70
2022-08-04T05:37:17.475Z,12.80
2022-08-04T05:40:01.013Z,12.80
2022-08-04T05:42:28.460Z,12.80
2022-08-04T05:44:56.742Z,12.90
2022-08-04T05:47:25.311Z,12.80
2022-08-04T05:50:02.273Z,12.90
2022-08-04T05:52:31.781Z,12.90
2022-08-04T05:55:02.940Z,12.90
2022-08-04T05:57:31.492Z,12.90
2022-08-04T06:00:07.049Z,12.90
2022-08-04T06:02:51.156Z,12.90
2022-08-04T06:05:19.502Z,12.90
2022-08-04T06:08:07.803Z,12.80
2022-08-04T06:10:37.676Z,12.80
2022-08-04T06:13:10.252Z,13.00
2022-08-04T06:15:59.628Z,12.90
2022-08-04T06:19:56.904Z,12.90
2022-08-04T06:21:20.853Z,12.90
2022-08-04T06:23:53.273Z,12.90
2022-08-04T06:26:28.872Z,13.00
2022-08-04T06:28:57.309Z,13.00
2022-08-04T06:32:31.094Z,13.10
2022-08-04T06:34:35.767Z,13.00
2022-08-04T06:37:03.432Z,13.10
2022-08-04T06:39:32.125Z,13.10
2022-08-04T06:42:21.546Z,13.10
2022-08-04T06:44:51.250Z,13.20
2022-08-04T06:47:21.403Z,13.30
2022-08-04T06:51:30.774Z,13.30
2022-08-04T06:52:39.191Z,13.40
2022-08-04T06:55:08.011Z,13.40
2022-08-04T06:57:36.463Z,13.40
2022-08-04T07:00:07.688Z,13.40
2022-08-04T07:02:49.051Z,13.40
2022-08-04T07:05:18.167Z,13.50
2022-08-04T07:07:56.755Z,13.50
2022-08-04T07:10:28.857Z,13.50
2022-08-04T07:12:57.857Z,13.50
2022-08-04T07:15:26.932Z,13.50
2022-08-04T07:17:55.326Z,13.60
2022-08-04T07:20:30.501Z,13.60
2022-08-04T07:23:03.578Z,13.70
2022-08-04T07:26:00.149Z,13.80
2022-08-04T07:28:18.003Z,13.80
2022-08-04T07:30:47.168Z,13.80
2022-08-04T07:33:18.570Z,13.80
2022-08-04T07:36:04.744Z,13.90
2022-08-04T07:38:37.646Z,14.20
2022-08-04T07:43:55.212Z,14.30
2022-08-04T07:46:22.593Z,14.10
2022-08-04T07:48:49.960Z,14.00
2022-08-04T07:51:17.756Z,13.90
2022-08-04T07:53:54.577Z,14.00
2022-08-04T07:56:23.277Z,13.90
2022-08-04T07:58:50.514Z,14.00
2022-08-04T08:01:19.540Z,14.10
2022-08-04T08:03:48.049Z,14.00
2022-08-04T08:06:17.219Z,13.70
2022-08-04T08:09:13.554Z,13.70
2022-08-04T08:12:35.111Z,13.90
2022-08-04T08:14:35.618Z,14.70
2022-08-04T08:17:03.382Z,14.70
2022-08-04T08:19:35.013Z,14.70
2022-08-04T08:22:02.731Z,14.60
2022-08-04T08:24:30.859Z,14.50
2022-08-04T08:27:01.885Z,15.00
2022-08-04T08:29:29.853Z,15.70
2022-08-04T08:32:01.332Z,16.40
2022-08-04T08:34:31.159Z,16.20
2022-08-04T08:37:24.598Z,16.40
2022-08-04T08:39:59.641Z,16.60
2022-08-04T08:42:54.692Z,16.70
2022-08-04T08:45:49.653Z,17.10
2022-08-04T08:48:53.055Z,17.20
2022-08-04T08:51:47.628Z,17.30
2022-08-04T08:54:33.619Z,17.30
2022-08-04T08:57:17.642Z,16.90
2022-08-04T09:00:03.216Z,16.50
2022-08-04T09:03:04.223Z,16.50
2022-08-04T09:05:50.890Z,16.80
2022-08-04T09:08:32.025Z,17.40
2022-08-04T09:11:10.080Z,17.60
2022-08-04T09:13:50.513Z,17.20
2022-08-04T09:16:38.781Z,17.00
2022-08-04T09:19:38.982Z,16.80
2022-08-04T09:22:29.848Z,16.80
2022-08-04T09:25:08.076Z,16.40
2022-08-04T09:27:47.446Z,15.90
2022-08-04T09:30:19.897Z,15.80
2022-08-04T09:33:22.724Z,16.00
2022-08-04T09:36:25.773Z,16.10
2022-08-04T09:39:04.266Z,16.20
2022-08-04T09:42:00.745Z,16.20
2022-08-04T09:45:04.936Z,16.00
2022-08-04T09:47:47.797Z,15.80
2022-08-04T09:50:32.671Z,15.70
2022-08-04T09:53:19.996Z,15.90
2022-08-04T09:55:53.918Z,16.30
2022-08-04T09:58:46.589Z,16.80
2022-08-04T10:01:23.781Z,16.90
2022-08-04T10:03:58.918Z,16.80
2022-08-04T10:06:44.985Z,16.70
2022-08-04T10:09:42.241Z,16.60
2022-08-04T10:12:24.255Z,16.60
2022-08-04T10:15:06.596Z,16.80
2022-08-04T10:18:15.921Z,16.90
2022-08-04T10:21:10.506Z,17.20
2022-08-04T10:24:03.519Z,17.90
2022-08-04T10:26:55.571Z,18.10
2022-08-04T10:29:30.813Z,18.20
2022-08-04T10:32:11.945Z,18.20
2022-08-04T10:35:02.708Z,18.00
2022-08-04T10:37:59.892Z,17.80
2022-08-04T10:40:36.618Z,17.40
2022-08-04T10:43:25.766Z,17.60
2022-08-04T10:46:05.404Z,17.80
2022-08-04T10:49:04.279Z,18.00
2022-08-04T10:51:58.467Z,18.80
2022-08-04T10:54:51.495Z,19.00
2022-08-04T10:57:29.721Z,18.50
2022-08-04T11:00:10.598Z,18.30
2022-08-04T11:02:53.769Z,18.00
2022-08-04T11:05:31.920Z,17.70
2022-08-04T11:08:10.154Z,17.80
2022-08-04T11:10:48.449Z,18.20
2022-08-04T11:13:21.977Z,18.80
2022-08-04T11:16:02.840Z,19.10
2022-08-04T11:18:41.969Z,19.30
2022-08-04T11:21:19.832Z,19.70
2022-08-04T11:24:03.196Z,19.80
2022-08-04T11:26:40.378Z,20.00
2022-08-04T11:29:17.964Z,19.60
2022-08-04T11:31:51.835Z,19.70
2022-08-04T11:34:24.101Z,19.60
2022-08-04T11:37:23.691Z,19.60
2022-08-04T11:39:59.357Z,20.00
2022-08-04T11:42:37.883Z,20.20
2022-08-04T11:45:08.446Z,20.10
2022-08-04T11:47:47.741Z,20.00
2022-08-04T11:50:48.217Z,19.60
2022-08-04T11:53:22.961Z,19.40
2022-08-04T11:56:09.012Z,20.20
2022-08-04T11:58:38.514Z,21.10
2022-08-04T12:01:42.532Z,21.80
2022-08-04T12:04:12.366Z,21.80
2022-08-04T12:10:42.210Z,21.30
2022-08-04T12:13:22.560Z,21.50
2022-08-04T12:16:12.616Z,21.80
2022-08-04T12:18:45.704Z,21.20
2022-08-04T12:21:26.702Z,20.70
2022-08-04T12:24:05.538Z,20.20
2022-08-04T12:26:40.614Z,20.20
2022-08-04T12:29:11.742Z,19.90
2022-08-04T12:32:00.867Z,19.90
2022-08-04T12:34:31.021Z,20.40
2022-08-04T12:37:33.952Z,20.60
2022-08-04T12:40:28.246Z,20.60
2022-08-04T12:43:37.529Z,20.30
2022-08-04T12:46:07.824Z,19.80
2022-08-04T12:48:37.639Z,19.40
2022-08-04T12:52:06.220Z,19.00
2022-08-04T12:53:56.553Z,18.80
2022-08-04T12:56:28.477Z,18.50
2022-08-04T12:59:06.813Z,18.40
2022-08-04T13:02:06.951Z,18.30
2022-08-04T13:04:38.355Z,18.20
2022-08-04T13:07:21.163Z,18.60
2022-08-04T13:09:48.738Z,18.90
2022-08-04T13:12:19.361Z,19.10
2022-08-04T13:14:49.376Z,19.80
2022-08-04T13:17:16.418Z,20.40
2022-08-04T13:19:50.252Z,20.50
2022-08-04T13:22:28.349Z,20.10
2022-08-04T13:26:41.509Z,19.60
2022-08-04T13:27:48.435Z,19.30
2022-08-04T13:30:23.201Z,19.10
2022-08-04T13:32:56.057Z,18.80
2022-08-04T13:35:54.172Z,18.40
2022-08-04T13:38:13.491Z,17.90
2022-08-04T13:40:43.432Z,17.60
2022-08-04T13:44:15.741Z,17.40
2022-08-04T13:46:16.489Z,17.10
2022-08-04T13:49:27.947Z,16.90
2022-08-04T13:51:58.469Z,16.80
2022-08-04T13:54:35.229Z,16.70
2022-08-04T13:57:15.803Z,16.60
2022-08-04T13:59:47.775Z,16.80
2022-08-04T14:02:32.007Z,16.90
2022-08-04T14:05:06.277Z,17.00
2022-08-04T14:07:50.815Z,17.10
2022-08-04T14:10:18.270Z,17.00
2022-08-04T14:12:51.121Z,16.90
2022-08-04T14:16:01.133Z,17.10
2022-08-04T14:18:28.886Z,17.10
2022-08-04T14:21:22.461Z,16.90
2022-08-04T14:23:56.959Z,17.00
2022-08-04T14:26:33.980Z,17.10
2022-08-04T14:29:27.128Z,17.10
2022-08-04T14:32:02.069Z,17.20
2022-08-04T14:34:31.348Z,17.80
2022-08-04T14:37:17.782Z,18.00
2022-08-04T14:40:18.315Z,18.00
2022-08-04T14:42:54.972Z,17.90
2022-08-04T14:45:32.188Z,17.90
2022-08-04T14:48:01.117Z,17.70
2022-08-04T14:50:54.416Z,17.60
2022-08-04T14:53:32.133Z,17.50
2022-08-04T14:56:01.186Z,17.30
2022-08-04T14:58:39.009Z,16.80
2022-08-04T15:01:12.160Z,16.30
2022-08-04T15:03:49.957Z,16.20
2022-08-04T15:06:23.277Z,16.30
2022-08-04T15:08:51.646Z,16.50
2022-08-04T15:11:23.406Z,16.80
2022-08-04T15:13:55.016Z,17.00
2022-08-04T15:16:25.557Z,17.10
2022-08-04T15:18:54.810Z,17.30
2022-08-04T15:21:26.138Z,17.30
2022-08-04T15:23:53.296Z,17.50
2022-08-04T15:26:33.728Z,17.50
2022-08-04T15:29:16.695Z,17.50
2022-08-04T15:32:05.422Z,17.60
2022-08-04T15:35:03.662Z,17.40
2022-08-04T15:38:13.123Z,17.10
2022-08-04T15:40:46.868Z,17.00
2022-08-04T15:43:38.335Z,17.10
2022-08-04T15:46:43.147Z,17.10
2022-08-04T15:48:52.703Z,17.10
2022-08-04T15:51:33.045Z,17.00
2022-08-04T15:54:03.059Z,16.90
2022-08-04T15:56:31.130Z,16.80
2022-08-04T15:58:58.298Z,16.70
2022-08-04T16:01:27.715Z,16.40
2022-08-04T16:04:00.190Z,16.30
2022-08-04T16:06:29.563Z,16.20
2022-08-04T16:09:01.695Z,16.20
2022-08-04T16:11:33.126Z,16.10
2022-08-04T16:14:00.280Z,16.20
2022-08-04T16:16:28.832Z,16.30
2022-08-04T16:19:04.366Z,16.20
2022-08-04T16:21:34.759Z,16.30
2022-08-04T16:24:19.754Z,16.20
2022-08-04T16:26:54.412Z,16.10
2022-08-04T16:29:52.539Z,16.30
2022-08-04T16:32:21.587Z,16.30
2022-08-04T16:35:04.823Z,16.30
2022-08-04T16:37:32.220Z,16.40
2022-08-04T16:40:43.594Z,16.80
2022-08-04T16:43:16.013Z,17.00
2022-08-04T16:45:42.946Z,17.40
2022-08-04T16:48:11.201Z,17.60
2022-08-04T16:51:05.131Z,17.70
2022-08-04T16:54:03.742Z,17.90
2022-08-04T16:56:34.773Z,18.00
2022-08-04T16:59:13.371Z,17.80
2022-08-04T17:01:49.247Z,17.50
2022-08-04T17:04:16.906Z,17.40
2022-08-04T17:06:46.537Z,17.50
2022-08-04T17:09:18.805Z,17.50
2022-08-04T17:11:48.220Z,17.40
2022-08-04T17:14:28.003Z,17.30
2022-08-04T17:17:01.207Z,17.10
2022-08-04T17:19:28.364Z,16.90
2022-08-04T17:22:07.347Z,17.00
2022-08-04T17:24:40.933Z,16.90
2022-08-04T17:28:08.595Z,16.70
2022-08-04T17:29:55.834Z,16.70
2022-08-04T17:32:23.916Z,16.60
2022-08-04T17:34:58.624Z,16.50
2022-08-04T17:37:41.133Z,16.40
2022-08-04T17:40:18.689Z,16.20
2022-08-04T17:44:00.879Z,16.00
2022-08-04T17:46:28.844Z,15.80
2022-08-04T17:49:02.445Z,15.70
2022-08-04T17:52:01.677Z,15.70
2022-08-04T17:54:37.081Z,15.70
2022-08-04T17:57:21.356Z,15.70
2022-08-04T17:59:59.285Z,15.70
2022-08-04T18:02:32.413Z,15.70
2022-08-04T18:05:07.563Z,15.60
2022-08-04T18:08:38.951Z,15.60
2022-08-04T18:10:52.354Z,15.70
2022-08-04T18:13:25.373Z,15.70
2022-08-04T18:16:04.931Z,15.80
2022-08-04T18:18:33.123Z,15.70
2022-08-04T18:21:02.796Z,15.80
2022-08-04T18:23:32.807Z,15.60
2022-08-04T18:26:01.682Z,15.50
2022-08-04T18:28:30.676Z,15.40
2022-08-04T18:30:57.906Z,15.50
2022-08-04T18:33:40.575Z,15.40
2022-08-04T18:36:35.531Z,15.30
2022-08-04T18:39:12.627Z,15.20
2022-08-04T18:42:02.243Z,15.20
2022-08-04T18:44:32.257Z,15.30
2022-08-04T18:47:19.179Z,15.30
2022-08-04T18:50:59.727Z,15.20
2022-08-04T18:52:34.276Z,15.10
2022-08-04T18:55:01.571Z,15.00
2022-08-04T18:57:32.588Z,15.10
2022-08-04T19:00:20.028Z,15.10
2022-08-04T19:02:47.648Z,15.20
2022-08-04T19:05:17.157Z,15.10
2022-08-04T19:08:02.113Z,15.20
2022-08-04T19:10:31.765Z,15.20
2022-08-04T19:12:59.534Z,15.20
2022-08-04T19:18:18.671Z,15.10
2022-08-04T19:20:46.963Z,15.20
2022-08-04T19:24:30.464Z,15.20
2022-08-04T19:26:08.351Z,15.30
2022-08-04T19:28:47.370Z,15.20
2022-08-04T19:31:17.240Z,15.30
2022-08-04T19:33:58.867Z,15.30
2022-08-04T19:36:33.176Z,15.20
2022-08-04T19:39:04.751Z,15.20
2022-08-04T19:42:05.862Z,15.10
2022-08-04T19:44:25.531Z,15.00
2022-08-04T19:46:57.854Z,14.90
2022-08-04T19:50:05.138Z,14.80
2022-08-04T19:52:33.221Z,14.60
2022-08-04T19:55:10.752Z,14.40
2022-08-04T19:57:46.056Z,14.40
2022-08-04T20:00:15.302Z,14.20
2022-08-04T20:02:42.276Z,14.00
2022-08-04T20:05:09.667Z,13.90
2022-08-04T20:07:37.268Z,13.80
2022-08-04T20:10:05.841Z,13.50
2022-08-04T20:12:33.666Z,13.40
2022-08-04T20:15:01.531Z,13.30
2022-08-04T20:18:07.392Z,13.20
2022-08-04T20:20:17.456Z,13.10
2022-08-04T20:22:52.771Z,13.10
2022-08-04T20:25:37.158Z,13.00
2022-08-04T20:28:05.358Z,13.00
2022-08-04T20:30:35.738Z,12.90
2022-08-04T20:33:04.397Z,12.90
2022-08-04T20:36:00.722Z,12.90
2022-08-04T20:38:33.755Z,12.80
2022-08-04T20:41:01.972Z,12.80
2022-08-04T20:43:31.216Z,12.70
2022-08-04T20:45:59.518Z,12.70
2022-08-04T20:54:16.073Z,12.60
2022-08-04T20:56:50.591Z,12.60
2022-08-04T20:59:18.847Z,12.60
2022-08-04T21:01:49.013Z,12.60
2022-08-04T21:04:32.707Z,12.50
2022-08-04T21:07:02.341Z,12.50
2022-08-04T21:09:38.273Z,12.40
2022-08-04T21:12:26.770Z,12.40
2022-08-04T21:15:01.622Z,12.30
2022-08-04T21:17:58.844Z,12.20
2022-08-04T21:20:28.966Z,12.20
2022-08-04T21:22:59.713Z,12.10
2022-08-04T21:25:29.576Z,12.10
2022-08-04T21:27:58.461Z,12.10
2022-08-04T21:30:26.842Z,12.10
2022-08-04T21:32:55.093Z,12.10
2022-08-04T21:35:30.826Z,12.20
2022-08-04T21:38:16.274Z,12.10
2022-08-04T21:40:54.722Z,12.00
2022-08-04T21:43:23.497Z,11.90
2022-08-04T21:45:54.853Z,11.70
2022-08-04T21:48:21.844Z,11.60
2022-08-04T21:50:50.276Z,11.50
2022-08-04T21:53:19.843Z,11.40
2022-08-04T21:56:06.560Z,11.40
2022-08-04T21:58:38.409Z,11.50
2022-08-04T22:01:13.694Z,11.40
2022-08-04T22:04:00.018Z,11.40
2022-08-04T22:06:28.377Z,11.40
2022-08-04T22:08:57.453Z,11.40
2022-08-04T22:11:43.788Z,11.30
2022-08-04T22:14:16.943Z,11.10
2022-08-04T22:16:45.403Z,11.00
2022-08-04T22:21:59.583Z,10.70
2022-08-04T22:24:26.514Z,10.70
2022-08-04T22:26:56.886Z,10.80
2022-08-04T22:29:23.824Z,10.80
2022-08-04T22:31:53.169Z,10.80
2022-08-04T22:34:25.088Z,10.80
2022-08-04T22:36:53.619Z,10.70
2022-08-04T22:39:23.597Z,10.70
2022-08-04T22:42:03.651Z,10.70
2022-08-04T22:44:33.004Z,10.70
2022-08-04T22:47:01.187Z,10.70
2022-08-04T22:49:31.431Z,10.70
2022-08-04T22:51:59.394Z,10.70
2022-08-04T22:54:28.478Z,10.70
2022-08-04T22:56:57.059Z,10.50
2022-08-04T22:59:24.661Z,10.50
2022-08-04T23:01:59.179Z,10.40
2022-08-04T23:04:29.442Z,10.40
2022-08-04T23:06:56.394Z,10.40
2022-08-04T23:09:49.523Z,10.40
2022-08-04T23:12:27.554Z,10.40
2022-08-04T23:14:59.243Z,10.40
2022-08-04T23:17:27.896Z,10.40
2022-08-04T23:19:57.648Z,10.40
2022-08-04T23:22:41.297Z,10.50
2022-08-04T23:25:15.117Z,10.50
2022-08-04T23:27:43.999Z,10.50
2022-08-04T23:30:21.989Z,10.50
2022-08-04T23:32:56.607Z,10.50
2022-08-04T23:35:23.975Z,10.50
2022-08-04T23:37:57.288Z,10.40
2022-08-04T23:40:32.451Z,10.40
2022-08-04T23:43:16.860Z,10.40
2022-08-04T23:46:07.050Z,10.50
2022-08-04T23:48:33.170Z,10.40
2022-08-04T23:51:13.820Z,10.40
2022-08-04T23:54:01.808Z,10.30
2022-08-04T23:56:29.241Z,10.20
2022-08-04T23:58:56.279Z,10.30
